createdAt,value
2017-09-04T00:00:10.352Z,13.84
2017-09-04T00:01:12.235Z,13.85
2017-09-04T00:02:14.115Z,13.92
2017-09-04T00:03:16.003Z,13.87
2017-09-04T00:04:17.832Z,13.81
2017-09-04T00:05:19.649Z,13.78
2017-09-04T00:06:21.537Z,13.78
2017-09-04T00:07:23.417Z,13.78
2017-09-04T00:08:25.300Z,13.75
2017-09-04T00:09:39.455Z,13.81
2017-09-04T00:10:41.337Z,13.71
2017-09-04T00:11:43.218Z,13.71
2017-09-04T00:12:45.108Z,13.71
2017-09-04T00:13:46.926Z,13.71
2017-09-04T00:14:48.744Z,13.64
2017-09-04T00:15:50.631Z,13.55
2017-09-04T00:16:52.508Z,13.51
2017-09-04T00:17:54.390Z,13.42
2017-09-04T00:19:08.543Z,13.59
2017-09-04T00:20:10.437Z,13.45
2017-09-04T00:21:12.327Z,13.41
2017-09-04T00:22:14.210Z,13.36
2017-09-04T00:23:16.029Z,13.30
2017-09-04T00:24:17.857Z,13.32
2017-09-04T00:25:19.738Z,13.29
2017-09-04T00:26:21.615Z,13.38
2017-09-04T00:27:23.493Z,13.32
2017-09-04T00:28:37.647Z,13.44
2017-09-04T00:29:39.528Z,13.36
2017-09-04T00:30:41.409Z,13.33
2017-09-04T00:31:43.290Z,13.54
2017-09-04T00:32:45.108Z,13.44
2017-09-04T00:33:46.927Z,13.49
2017-09-04T00:34:48.804Z,13.48
2017-09-04T00:35:50.652Z,13.51
2017-09-04T00:36:52.471Z,13.45
2017-09-04T00:38:06.662Z,13.51
2017-09-04T00:39:08.546Z,13.49
2017-09-04T00:40:10.442Z,13.49
2017-09-04T00:41:12.317Z,13.48
2017-09-04T00:42:14.134Z,13.49
2017-09-04T00:43:15.961Z,13.55
2017-09-04T00:44:17.854Z,13.55
2017-09-04T00:45:19.733Z,13.59
2017-09-04T00:46:21.626Z,13.66
2017-09-04T00:47:35.791Z,13.67
2017-09-04T00:48:37.684Z,13.63
2017-09-04T00:49:39.576Z,13.77
2017-09-04T00:50:41.468Z,13.69
2017-09-04T00:51:43.286Z,13.85
2017-09-04T00:52:45.101Z,13.79
2017-09-04T00:53:46.993Z,13.92
2017-09-04T00:54:48.872Z,13.97
2017-09-04T00:55:50.768Z,14.04
2017-09-04T00:57:04.901Z,14.00
2017-09-04T00:58:06.745Z,14.06
2017-09-04T00:59:08.636Z,14.07
2017-09-04T01:00:10.526Z,14.24
2017-09-04T01:01:12.415Z,14.15
2017-09-04T01:02:14.210Z,14.17
2017-09-04T01:03:16.040Z,14.21
2017-09-04T01:04:17.929Z,14.20
2017-09-04T01:05:19.808Z,14.24
2017-09-04T01:06:34.050Z,14.15
2017-09-04T01:07:35.925Z,14.25
2017-09-04T01:08:37.812Z,14.27
2017-09-04T01:09:39.693Z,14.22
2017-09-04T01:10:41.520Z,14.25
2017-09-04T01:11:43.348Z,14.28
2017-09-04T01:12:45.227Z,14.20
2017-09-04T01:13:47.115Z,14.09
2017-09-04T01:14:48.995Z,13.99
2017-09-04T01:16:03.148Z,14.03
2017-09-04T01:17:05.029Z,14.15
2017-09-04T01:18:06.911Z,14.18
2017-09-04T01:19:08.801Z,14.10
2017-09-04T01:20:10.631Z,14.10
2017-09-04T01:21:12.444Z,14.03
2017-09-04T01:22:14.324Z,14.17
2017-09-04T01:23:16.203Z,14.07
2017-09-04T01:24:18.085Z,14.07
2017-09-04T01:25:32.234Z,14.02
2017-09-04T01:26:34.123Z,14.04
2017-09-04T01:27:36.000Z,14.02
2017-09-04T01:28:37.889Z,13.89
2017-09-04T01:29:39.708Z,13.84
2017-09-04T01:30:41.525Z,13.71
2017-09-04T01:31:43.407Z,13.62
2017-09-04T01:32:45.285Z,13.63
2017-09-04T01:33:47.163Z,13.59
2017-09-04T01:35:01.313Z,13.67
2017-09-04T01:36:03.192Z,13.51
2017-09-04T01:37:05.072Z,13.49
2017-09-04T01:38:06.951Z,13.49
2017-09-04T01:39:08.768Z,13.46
2017-09-04T01:40:10.585Z,13.41
2017-09-04T01:41:12.462Z,13.33
2017-09-04T01:42:14.343Z,13.36
2017-09-04T01:43:16.219Z,13.44
2017-09-04T01:44:30.372Z,13.38
2017-09-04T01:45:32.262Z,13.28
2017-09-04T01:46:34.133Z,13.30
2017-09-04T01:47:36.020Z,13.29
2017-09-04T01:48:37.827Z,13.19
2017-09-04T01:49:39.642Z,13.15
2017-09-04T01:50:41.520Z,13.17
2017-09-04T01:51:43.401Z,13.17
2017-09-04T01:52:45.289Z,13.19
2017-09-04T01:53:59.441Z,13.22
2017-09-04T01:55:01.321Z,13.04
2017-09-04T01:56:03.202Z,13.08
2017-09-04T01:57:05.078Z,13.04
2017-09-04T01:58:06.895Z,13.01
2017-09-04T01:59:08.711Z,13.01
2017-09-04T02:00:10.588Z,12.97
2017-09-04T02:01:12.469Z,12.97
2017-09-04T02:02:14.343Z,13.00
2017-09-04T02:03:28.496Z,12.89
2017-09-04T02:04:30.385Z,12.92
2017-09-04T02:05:32.264Z,13.00
2017-09-04T02:06:34.139Z,12.95
2017-09-04T02:07:35.966Z,13.04
2017-09-04T02:08:37.784Z,13.10
2017-09-04T02:09:39.665Z,13.12
2017-09-04T02:10:41.544Z,13.15
2017-09-04T02:11:43.432Z,13.19
2017-09-04T02:12:57.583Z,13.25
2017-09-04T02:13:59.462Z,13.26
2017-09-04T02:15:01.345Z,13.28
2017-09-04T02:16:03.233Z,13.28
2017-09-04T02:17:05.051Z,13.25
2017-09-04T02:18:06.872Z,13.28
2017-09-04T02:19:08.753Z,13.11
2017-09-04T02:20:10.630Z,13.14
2017-09-04T02:21:12.519Z,12.96
2017-09-04T02:22:26.672Z,13.10
2017-09-04T02:23:28.563Z,13.01
2017-09-04T02:24:30.446Z,12.87
2017-09-04T02:25:32.323Z,12.83
2017-09-04T02:26:34.140Z,12.78
2017-09-04T02:27:35.956Z,12.74
2017-09-04T02:28:37.843Z,12.89
2017-09-04T02:29:39.723Z,12.75
2017-09-04T02:30:41.603Z,12.74
2017-09-04T02:31:55.764Z,12.74
2017-09-04T02:32:57.635Z,12.71
2017-09-04T02:33:59.516Z,12.68
2017-09-04T02:35:01.400Z,12.72
2017-09-04T02:36:03.213Z,12.71
2017-09-04T02:37:05.030Z,12.67
2017-09-04T02:38:06.905Z,12.71
2017-09-04T02:39:08.813Z,12.65
2017-09-04T02:40:10.685Z,12.70
2017-09-04T02:41:24.888Z,12.68
2017-09-04T02:42:26.765Z,12.65
2017-09-04T02:43:28.644Z,12.65
2017-09-04T02:44:30.518Z,12.72
2017-09-04T02:45:32.335Z,12.65
2017-09-04T02:46:34.154Z,12.67
2017-09-04T02:47:36.035Z,12.57
2017-09-04T02:48:37.913Z,12.60
2017-09-04T02:49:39.794Z,12.56
2017-09-04T02:50:53.944Z,12.53
2017-09-04T02:51:55.823Z,12.49
2017-09-04T02:52:57.707Z,12.49
2017-09-04T02:53:59.596Z,12.57
2017-09-04T02:55:01.413Z,12.56
2017-09-04T02:56:03.231Z,12.50
2017-09-04T02:57:05.110Z,12.57
2017-09-04T02:58:06.989Z,12.46
2017-09-04T02:59:08.882Z,12.47
2017-09-04T03:00:23.081Z,12.47
2017-09-04T03:01:24.958Z,12.46
2017-09-04T03:02:26.839Z,12.46
2017-09-04T03:03:28.720Z,12.42
2017-09-04T03:04:30.537Z,12.38
2017-09-04T03:05:32.354Z,12.47
2017-09-04T03:06:34.233Z,12.50
2017-09-04T03:07:36.122Z,12.56
2017-09-04T03:08:38.003Z,12.53
2017-09-04T03:09:52.154Z,12.56
2017-09-04T03:10:54.032Z,12.49
2017-09-04T03:11:55.918Z,12.46
2017-09-04T03:12:57.794Z,12.45
2017-09-04T03:13:59.610Z,12.52
2017-09-04T03:15:01.432Z,12.34
2017-09-04T03:16:03.305Z,12.42
2017-09-04T03:17:05.185Z,12.32
2017-09-04T03:18:07.063Z,12.37
2017-09-04T03:19:21.214Z,12.41
2017-09-04T03:20:23.094Z,12.47
2017-09-04T03:21:24.976Z,12.39
2017-09-04T03:22:26.856Z,12.50
2017-09-04T03:23:28.670Z,12.31
2017-09-04T03:24:30.487Z,12.46
2017-09-04T03:25:32.368Z,12.45
2017-09-04T03:26:34.248Z,12.34
2017-09-04T03:27:36.127Z,12.35
2017-09-04T03:28:50.288Z,12.32
2017-09-04T03:29:52.167Z,12.38
2017-09-04T03:30:54.052Z,12.37
2017-09-04T03:31:56.131Z,12.42
2017-09-04T03:32:57.949Z,12.39
2017-09-04T03:33:59.764Z,12.42
2017-09-04T03:35:01.642Z,12.46
2017-09-04T03:36:03.522Z,12.45
2017-09-04T03:37:05.414Z,12.42
2017-09-04T03:38:19.563Z,12.42
2017-09-04T03:39:21.451Z,12.50
2017-09-04T03:40:23.335Z,12.42
2017-09-04T03:41:25.211Z,12.47
2017-09-04T03:42:27.039Z,12.38
2017-09-04T03:43:28.854Z,12.32
2017-09-04T03:44:30.735Z,12.34
2017-09-04T03:45:32.618Z,12.34
2017-09-04T03:46:34.500Z,12.31
2017-09-04T03:47:48.648Z,12.39
2017-09-04T03:48:50.526Z,12.41
2017-09-04T03:49:52.411Z,12.38
2017-09-04T03:50:54.292Z,12.31
2017-09-04T03:51:56.106Z,12.29
2017-09-04T03:52:57.923Z,12.21
2017-09-04T03:53:59.802Z,12.29
2017-09-04T03:55:01.685Z,12.29
2017-09-04T03:56:03.561Z,12.34
2017-09-04T03:57:17.713Z,12.28
2017-09-04T03:58:19.606Z,12.16
2017-09-04T03:59:21.489Z,12.28
2017-09-04T04:00:23.370Z,12.27
2017-09-04T04:01:25.185Z,12.19
2017-09-04T04:02:27.001Z,12.16
2017-09-04T04:03:28.883Z,12.32
2017-09-04T04:04:30.763Z,12.20
2017-09-04T04:05:32.655Z,12.16
2017-09-04T04:06:46.805Z,12.35
2017-09-04T04:07:48.688Z,12.28
2017-09-04T04:08:50.574Z,12.32
2017-09-04T04:09:52.455Z,12.24
2017-09-04T04:10:54.274Z,12.27
2017-09-04T04:11:56.090Z,12.20
2017-09-04T04:12:57.975Z,12.19
2017-09-04T04:13:59.860Z,12.31
2017-09-04T04:15:01.705Z,12.35
2017-09-04T04:16:15.857Z,12.37
2017-09-04T04:17:17.739Z,12.45
2017-09-04T04:18:19.623Z,12.46
2017-09-04T04:19:21.513Z,12.39
2017-09-04T04:20:23.341Z,12.45
2017-09-04T04:21:25.161Z,12.49
2017-09-04T04:22:27.041Z,12.54
2017-09-04T04:23:28.933Z,12.53
2017-09-04T04:24:30.819Z,12.53
2017-09-04T04:25:44.968Z,12.53
2017-09-04T04:26:46.853Z,12.56
2017-09-04T04:27:48.738Z,12.53
2017-09-04T04:28:50.622Z,12.47
2017-09-04T04:29:52.442Z,12.50
2017-09-04T04:30:54.258Z,12.53
2017-09-04T04:31:56.145Z,12.56
2017-09-04T04:32:58.030Z,12.56
2017-09-04T04:33:59.920Z,12.42
2017-09-04T04:35:14.068Z,12.54
2017-09-04T04:36:15.952Z,12.54
2017-09-04T04:37:17.837Z,12.53
2017-09-04T04:38:19.718Z,12.57
2017-09-04T04:39:21.542Z,12.65
2017-09-04T04:40:23.362Z,12.57
2017-09-04T04:41:25.245Z,12.68
2017-09-04T04:42:27.131Z,12.72
2017-09-04T04:43:29.017Z,12.72
2017-09-04T04:44:43.176Z,12.71
2017-09-04T04:45:45.061Z,12.79
2017-09-04T04:46:46.944Z,12.86
2017-09-04T04:47:48.827Z,12.87
2017-09-04T04:48:50.659Z,12.85
2017-09-04T04:49:52.479Z,12.83
2017-09-04T04:50:54.363Z,12.86
2017-09-04T04:51:56.249Z,12.95
2017-09-04T04:52:58.135Z,12.95
2017-09-04T04:54:12.293Z,13.00
2017-09-04T04:55:14.185Z,13.05
2017-09-04T04:56:16.274Z,13.12
2017-09-04T04:57:18.158Z,13.20
2017-09-04T04:58:19.981Z,13.26
2017-09-04T04:59:21.800Z,13.23
2017-09-04T05:00:23.696Z,13.28
2017-09-04T05:01:25.543Z,13.39
2017-09-04T05:02:27.366Z,13.41
2017-09-04T05:03:41.558Z,13.30
2017-09-04T05:04:43.442Z,13.45
2017-09-04T05:05:45.331Z,13.38
2017-09-04T05:06:47.216Z,13.38
2017-09-04T05:07:49.050Z,13.38
2017-09-04T05:08:50.873Z,13.42
2017-09-04T05:09:52.759Z,13.45
2017-09-04T05:10:54.644Z,13.38
2017-09-04T05:11:56.529Z,13.41
2017-09-04T05:13:10.686Z,13.41
2017-09-04T05:14:12.570Z,13.32
2017-09-04T05:15:14.461Z,13.41
2017-09-04T05:16:16.346Z,13.41
2017-09-04T05:17:18.182Z,13.44
2017-09-04T05:18:20.021Z,13.52
2017-09-04T05:19:21.910Z,13.52
2017-09-04T05:20:23.798Z,13.54
2017-09-04T05:21:25.683Z,13.55
2017-09-04T05:22:39.850Z,13.54
2017-09-04T05:23:41.728Z,13.57
2017-09-04T05:24:43.616Z,13.46
2017-09-04T05:25:45.498Z,13.45
2017-09-04T05:26:47.329Z,13.52
2017-09-04T05:27:49.150Z,13.49
2017-09-04T05:28:51.034Z,13.54
2017-09-04T05:29:52.920Z,13.48
2017-09-04T05:30:54.804Z,13.48
2017-09-04T05:32:08.971Z,13.48
2017-09-04T05:33:10.857Z,13.60
2017-09-04T05:34:12.743Z,13.55
2017-09-04T05:35:14.628Z,13.62
2017-09-04T05:36:16.450Z,13.57
2017-09-04T05:37:18.271Z,13.62
2017-09-04T05:38:20.156Z,13.63
2017-09-04T05:39:22.046Z,13.64
2017-09-04T05:40:23.931Z,13.71
2017-09-04T05:41:38.084Z,13.71
2017-09-04T05:42:39.971Z,13.67
2017-09-04T05:43:41.858Z,13.73
2017-09-04T05:44:43.742Z,13.79
2017-09-04T05:45:45.575Z,13.85
2017-09-04T05:46:47.396Z,13.87
2017-09-04T05:47:49.279Z,13.84
2017-09-04T05:48:51.166Z,13.67
2017-09-04T05:49:53.048Z,13.66
2017-09-04T05:51:07.205Z,13.69
2017-09-04T05:52:09.091Z,13.71
2017-09-04T05:53:10.982Z,13.73
2017-09-04T05:54:12.868Z,13.81
2017-09-04T05:55:14.691Z,13.87
2017-09-04T05:56:16.514Z,13.89
2017-09-04T05:57:18.398Z,13.88
2017-09-04T05:58:20.286Z,13.99
2017-09-04T05:59:22.185Z,13.89
2017-09-04T06:00:36.344Z,13.99
2017-09-04T06:01:38.229Z,14.00
2017-09-04T06:02:40.115Z,14.06
2017-09-04T06:03:41.997Z,13.96
2017-09-04T06:04:43.830Z,13.97
2017-09-04T06:05:45.653Z,14.04
2017-09-04T06:06:47.534Z,14.03
2017-09-04T06:07:49.429Z,13.96
2017-09-04T06:08:51.315Z,14.21
2017-09-04T06:10:05.470Z,14.20
2017-09-04T06:11:07.353Z,14.18
2017-09-04T06:12:09.239Z,14.36
2017-09-04T06:13:11.121Z,14.35
2017-09-04T06:14:12.955Z,14.33
2017-09-04T06:15:14.778Z,14.25
2017-09-04T06:16:16.660Z,14.33
2017-09-04T06:17:18.549Z,14.25
2017-09-04T06:18:20.433Z,14.22
2017-09-04T06:19:34.588Z,14.28
2017-09-04T06:20:36.474Z,14.21
2017-09-04T06:21:38.361Z,14.20
2017-09-04T06:22:40.241Z,14.25
2017-09-04T06:23:42.076Z,14.24
2017-09-04T06:24:43.898Z,14.27
2017-09-04T06:25:45.784Z,14.27
2017-09-04T06:26:47.670Z,14.32
2017-09-04T06:27:49.556Z,14.33
2017-09-04T06:29:03.714Z,14.51
2017-09-04T06:30:05.599Z,14.61
2017-09-04T06:31:07.487Z,14.65
2017-09-04T06:32:09.370Z,14.80
2017-09-04T06:33:11.193Z,14.80
2017-09-04T06:34:13.017Z,14.78
2017-09-04T06:35:14.906Z,14.84
2017-09-04T06:36:16.794Z,14.88
2017-09-04T06:37:18.679Z,14.94
2017-09-04T06:38:32.837Z,15.10
2017-09-04T06:39:34.723Z,15.07
2017-09-04T06:40:36.610Z,15.20
2017-09-04T06:41:38.494Z,15.17
2017-09-04T06:42:40.317Z,15.20
2017-09-04T06:43:42.140Z,15.23
2017-09-04T06:44:44.025Z,15.56
2017-09-04T06:45:45.913Z,15.56
2017-09-04T06:46:47.799Z,15.56
2017-09-04T06:48:01.958Z,15.62
2017-09-04T06:49:03.847Z,15.62
2017-09-04T06:50:05.733Z,15.51
2017-09-04T06:51:07.619Z,15.65
2017-09-04T06:52:09.444Z,15.68
2017-09-04T06:53:11.267Z,15.76
2017-09-04T06:54:13.151Z,15.78
2017-09-04T06:55:15.039Z,15.80
2017-09-04T06:56:16.924Z,15.93
2017-09-04T06:57:31.080Z,16.17
2017-09-04T06:58:32.967Z,16.25
2017-09-04T06:59:34.895Z,16.34
2017-09-04T07:00:36.746Z,16.41
2017-09-04T07:01:38.572Z,16.50
2017-09-04T07:02:40.395Z,16.56
2017-09-04T07:03:42.280Z,16.58
2017-09-04T07:04:44.167Z,16.46
2017-09-04T07:05:46.053Z,16.63
2017-09-04T07:07:00.209Z,16.67
2017-09-04T07:08:02.102Z,16.76
2017-09-04T07:09:03.985Z,16.81
2017-09-04T07:10:05.868Z,16.82
2017-09-04T07:11:07.690Z,16.82
2017-09-04T07:12:09.512Z,16.82
2017-09-04T07:13:11.403Z,16.83
2017-09-04T07:14:13.287Z,16.82
2017-09-04T07:15:15.173Z,16.88
2017-09-04T07:16:29.342Z,16.93
2017-09-04T07:17:31.227Z,17.03
2017-09-04T07:18:33.113Z,17.01
2017-09-04T07:19:34.994Z,16.98
2017-09-04T07:20:36.831Z,17.03
2017-09-04T07:21:38.654Z,17.00
2017-09-04T07:22:40.540Z,17.11
2017-09-04T07:23:42.428Z,17.01
2017-09-04T07:24:44.313Z,17.03
2017-09-04T07:25:58.477Z,17.07
2017-09-04T07:27:00.362Z,17.08
2017-09-04T07:28:02.249Z,17.07
2017-09-04T07:29:04.130Z,17.01
2017-09-04T07:30:05.954Z,17.08
2017-09-04T07:31:07.783Z,17.12
2017-09-04T07:32:09.665Z,17.11
2017-09-04T07:33:11.551Z,17.00
2017-09-04T07:34:13.439Z,16.93
2017-09-04T07:35:27.598Z,16.94
2017-09-04T07:36:29.486Z,16.85
2017-09-04T07:37:31.373Z,16.88
2017-09-04T07:38:33.258Z,16.78
2017-09-04T07:39:35.083Z,16.70
2017-09-04T07:40:36.906Z,16.76
2017-09-04T07:41:38.790Z,16.70
2017-09-04T07:42:40.678Z,16.73
2017-09-04T07:43:42.564Z,16.85
2017-09-04T07:44:56.727Z,16.89
2017-09-04T07:45:58.616Z,16.93
2017-09-04T07:47:00.499Z,17.01
2017-09-04T07:48:02.382Z,17.01
2017-09-04T07:49:04.211Z,17.08
2017-09-04T07:50:06.028Z,17.08
2017-09-04T07:51:07.875Z,17.08
2017-09-04T07:52:09.700Z,17.08
2017-09-04T07:53:11.526Z,17.16
2017-09-04T07:54:25.685Z,17.33
2017-09-04T07:55:27.569Z,17.38
2017-09-04T07:56:29.460Z,17.55
2017-09-04T07:57:31.343Z,17.59
2017-09-04T07:58:33.180Z,17.51
2017-09-04T07:59:35.004Z,17.46
2017-09-04T08:00:36.887Z,17.41
2017-09-04T08:01:38.773Z,17.38
2017-09-04T08:02:40.659Z,17.41
2017-09-04T08:03:54.865Z,17.33
2017-09-04T08:04:56.753Z,17.44
2017-09-04T08:05:58.641Z,17.56
2017-09-04T08:07:00.528Z,17.55
2017-09-04T08:08:02.353Z,17.56
2017-09-04T08:09:04.178Z,17.66
2017-09-04T08:10:06.061Z,17.64
2017-09-04T08:11:07.951Z,17.64
2017-09-04T08:12:09.836Z,17.64
2017-09-04T08:13:24.044Z,17.43
2017-09-04T08:14:25.928Z,17.37
2017-09-04T08:15:27.818Z,17.34
2017-09-04T08:16:29.700Z,17.37
2017-09-04T08:17:31.539Z,17.18
2017-09-04T08:18:33.364Z,17.25
2017-09-04T08:19:35.249Z,17.25
2017-09-04T08:20:37.137Z,17.28
2017-09-04T08:21:39.038Z,17.23
2017-09-04T08:22:53.192Z,17.23
2017-09-04T08:23:55.076Z,17.19
2017-09-04T08:24:56.963Z,17.26
2017-09-04T08:25:58.846Z,17.06
2017-09-04T08:27:00.672Z,17.06
2017-09-04T08:28:02.495Z,17.03
2017-09-04T08:29:04.379Z,17.00
2017-09-04T08:30:06.263Z,17.03
2017-09-04T08:31:08.147Z,17.01
2017-09-04T08:32:22.306Z,16.98
2017-09-04T08:33:24.191Z,17.04
2017-09-04T08:34:26.079Z,17.06
2017-09-04T08:35:27.961Z,17.06
2017-09-04T08:36:29.785Z,17.19
2017-09-04T08:37:31.608Z,17.07
2017-09-04T08:38:33.492Z,17.11
2017-09-04T08:39:35.377Z,17.18
2017-09-04T08:40:37.264Z,17.11
2017-09-04T08:41:51.428Z,17.22
2017-09-04T08:42:53.308Z,17.23
2017-09-04T08:43:55.193Z,17.26
2017-09-04T08:44:57.076Z,17.33
2017-09-04T08:45:58.901Z,17.40
2017-09-04T08:47:00.736Z,17.49
2017-09-04T08:48:02.631Z,17.62
2017-09-04T08:49:04.519Z,17.70
2017-09-04T08:50:06.405Z,17.68
2017-09-04T08:51:20.565Z,17.96
2017-09-04T08:52:22.453Z,18.25
2017-09-04T08:53:24.338Z,18.42
2017-09-04T08:54:26.223Z,18.51
2017-09-04T08:55:28.050Z,18.66
2017-09-04T08:56:29.871Z,18.82
2017-09-04T08:57:31.755Z,18.90
2017-09-04T08:58:33.642Z,18.91
2017-09-04T08:59:35.525Z,18.90
2017-09-04T09:00:49.686Z,18.76
2017-09-04T09:01:51.585Z,18.72
2017-09-04T09:02:53.471Z,18.80
2017-09-04T09:03:55.355Z,18.72
2017-09-04T09:04:57.178Z,18.75
2017-09-04T09:05:59.008Z,18.73
2017-09-04T09:07:00.892Z,18.60
2017-09-04T09:08:02.781Z,18.50
2017-09-04T09:09:04.666Z,18.44
2017-09-04T09:10:18.835Z,18.25
2017-09-04T09:11:20.713Z,18.14
2017-09-04T09:12:22.600Z,18.03
2017-09-04T09:13:24.484Z,17.89
2017-09-04T09:14:26.309Z,17.95
2017-09-04T09:15:28.135Z,17.99
2017-09-04T09:16:30.023Z,18.05
2017-09-04T09:17:31.910Z,18.20
2017-09-04T09:18:33.796Z,18.35
2017-09-04T09:19:47.958Z,18.48
2017-09-04T09:20:49.846Z,18.73
2017-09-04T09:21:51.737Z,18.82
2017-09-04T09:22:53.624Z,19.00
2017-09-04T09:23:55.449Z,19.00
2017-09-04T09:24:57.275Z,18.87
2017-09-04T09:25:59.160Z,18.78
2017-09-04T09:27:01.048Z,18.75
2017-09-04T09:28:02.937Z,18.63
2017-09-04T09:29:17.100Z,18.88
2017-09-04T09:30:18.987Z,18.99
2017-09-04T09:31:20.876Z,18.99
2017-09-04T09:32:22.760Z,18.88
2017-09-04T09:33:24.583Z,18.85
2017-09-04T09:34:26.407Z,18.82
2017-09-04T09:35:28.291Z,18.84
2017-09-04T09:36:30.179Z,18.85
2017-09-04T09:37:32.072Z,18.98
2017-09-04T09:38:46.228Z,19.13
2017-09-04T09:39:48.116Z,19.46
2017-09-04T09:40:50.005Z,19.50
2017-09-04T09:41:51.892Z,19.61
2017-09-04T09:42:53.721Z,19.65
2017-09-04T09:43:55.550Z,19.76
2017-09-04T09:44:57.441Z,19.80
2017-09-04T09:45:59.331Z,19.77
2017-09-04T09:47:01.220Z,19.77
2017-09-04T09:48:15.379Z,19.71
2017-09-04T09:49:17.289Z,19.58
2017-09-04T09:50:19.177Z,19.51
2017-09-04T09:51:21.072Z,19.39
2017-09-04T09:52:22.900Z,19.39
2017-09-04T09:53:24.726Z,19.62
2017-09-04T09:54:26.615Z,19.65
2017-09-04T09:55:28.504Z,19.65
2017-09-04T09:56:30.391Z,19.54
2017-09-04T09:57:44.555Z,19.58
2017-09-04T09:58:46.440Z,19.58
2017-09-04T09:59:48.333Z,19.43
2017-09-04T10:00:50.216Z,19.40
2017-09-04T10:01:52.041Z,19.25
2017-09-04T10:02:53.869Z,19.19
2017-09-04T10:03:55.756Z,19.06
2017-09-04T10:04:57.645Z,19.04
2017-09-04T10:05:59.533Z,19.23
2017-09-04T10:07:13.698Z,19.22
2017-09-04T10:08:15.587Z,19.23
2017-09-04T10:09:17.480Z,19.16
2017-09-04T10:10:19.366Z,19.23
2017-09-04T10:11:21.191Z,19.41
2017-09-04T10:12:23.021Z,19.41
2017-09-04T10:13:24.911Z,19.44
2017-09-04T10:14:26.799Z,19.43
2017-09-04T10:15:28.686Z,19.54
2017-09-04T10:16:42.846Z,19.58
2017-09-04T10:17:44.732Z,19.50
2017-09-04T10:18:46.630Z,19.55
2017-09-04T10:19:48.527Z,19.56
2017-09-04T10:20:50.353Z,19.47
2017-09-04T10:21:52.181Z,19.54
2017-09-04T10:22:54.066Z,19.54
2017-09-04T10:23:55.951Z,19.47
2017-09-04T10:24:57.839Z,19.47
2017-09-04T10:26:12.001Z,19.36
2017-09-04T10:27:13.886Z,19.41
2017-09-04T10:28:15.776Z,19.58
2017-09-04T10:29:17.662Z,19.62
2017-09-04T10:30:19.488Z,19.61
2017-09-04T10:31:21.313Z,19.58
2017-09-04T10:32:23.208Z,19.56
2017-09-04T10:33:25.086Z,19.43
2017-09-04T10:34:26.974Z,19.25
2017-09-04T10:35:41.142Z,19.18
2017-09-04T10:36:43.024Z,19.07
2017-09-04T10:37:44.914Z,19.07
2017-09-04T10:38:46.797Z,19.08
2017-09-04T10:39:48.629Z,19.10
2017-09-04T10:40:50.449Z,19.25
2017-09-04T10:41:52.336Z,19.26
2017-09-04T10:42:54.223Z,19.40
2017-09-04T10:43:56.123Z,19.54
2017-09-04T10:45:10.285Z,19.59
2017-09-04T10:46:12.197Z,19.62
2017-09-04T10:47:14.110Z,19.76
2017-09-04T10:48:16.002Z,19.96
2017-09-04T10:49:17.829Z,20.11
2017-09-04T10:50:19.656Z,20.24
2017-09-04T10:51:21.542Z,20.10
2017-09-04T10:52:23.441Z,19.91
2017-09-04T10:53:25.362Z,19.80
2017-09-04T10:54:39.569Z,19.83
2017-09-04T10:55:41.458Z,19.71
2017-09-04T10:56:43.346Z,19.58
2017-09-04T10:57:45.230Z,19.50
2017-09-04T10:58:47.069Z,19.50
2017-09-04T10:59:48.896Z,19.55
2017-09-04T11:00:50.781Z,19.58
2017-09-04T11:01:52.670Z,19.73
2017-09-04T11:02:54.555Z,19.88
2017-09-04T11:04:08.713Z,20.11
2017-09-04T11:05:10.601Z,20.28
2017-09-04T11:06:12.489Z,20.28
2017-09-04T11:07:14.374Z,20.29
2017-09-04T11:08:16.199Z,20.35
2017-09-04T11:09:18.024Z,20.29
2017-09-04T11:10:19.908Z,20.50
2017-09-04T11:11:21.793Z,20.36
2017-09-04T11:12:23.689Z,20.52
2017-09-04T11:13:37.862Z,20.62
2017-09-04T11:14:39.749Z,20.54
2017-09-04T11:15:41.636Z,20.64
2017-09-04T11:16:43.519Z,20.55
2017-09-04T11:17:45.357Z,20.57
2017-09-04T11:18:47.184Z,20.54
2017-09-04T11:19:49.081Z,20.43
2017-09-04T11:20:50.968Z,20.41
2017-09-04T11:21:52.856Z,20.39
2017-09-04T11:23:07.018Z,20.41
2017-09-04T11:24:08.905Z,20.55
2017-09-04T11:25:10.793Z,20.58
2017-09-04T11:26:12.676Z,20.55
2017-09-04T11:27:14.513Z,20.32
2017-09-04T11:28:16.341Z,20.17
2017-09-04T11:29:18.226Z,20.24
2017-09-04T11:30:20.116Z,20.33
2017-09-04T11:31:22.003Z,20.23
2017-09-04T11:32:36.165Z,20.21
2017-09-04T11:33:38.051Z,20.13
2017-09-04T11:34:39.939Z,20.14
2017-09-04T11:35:41.824Z,20.20
2017-09-04T11:36:43.649Z,20.24
2017-09-04T11:37:45.477Z,20.17
2017-09-04T11:38:47.364Z,20.18
2017-09-04T11:39:49.250Z,20.21
2017-09-04T11:40:51.136Z,20.28
2017-09-04T11:42:05.297Z,20.32
2017-09-04T11:43:07.184Z,20.24
2017-09-04T11:44:09.074Z,20.11
2017-09-04T11:45:10.959Z,20.18
2017-09-04T11:46:12.787Z,20.13
2017-09-04T11:47:14.611Z,20.16
2017-09-04T11:48:16.499Z,20.10
2017-09-04T11:49:18.387Z,20.29
2017-09-04T11:50:20.273Z,20.38
2017-09-04T11:51:34.435Z,20.13
2017-09-04T11:52:36.323Z,20.13
2017-09-04T11:53:38.211Z,20.02
2017-09-04T11:54:40.098Z,19.92
2017-09-04T11:55:41.937Z,19.83
2017-09-04T11:56:43.764Z,19.74
2017-09-04T11:57:45.651Z,19.73
2017-09-04T11:58:47.540Z,19.74
2017-09-04T11:59:49.426Z,19.98
2017-09-04T12:01:03.589Z,20.14
2017-09-04T12:02:05.476Z,20.38
2017-09-04T12:03:07.365Z,20.66
2017-09-04T12:04:09.248Z,20.84
2017-09-04T12:05:11.089Z,20.92
2017-09-04T12:06:12.917Z,21.07
2017-09-04T12:07:14.804Z,21.28
2017-09-04T12:08:16.694Z,21.34
2017-09-04T12:09:18.580Z,21.46
2017-09-04T12:10:32.780Z,21.58
2017-09-04T12:11:34.665Z,21.71
2017-09-04T12:12:36.558Z,21.87
2017-09-04T12:13:38.442Z,21.86
2017-09-04T12:14:40.269Z,22.00
2017-09-04T12:15:42.094Z,22.10
2017-09-04T12:16:43.981Z,22.12
2017-09-04T12:17:45.869Z,22.31
2017-09-04T12:18:47.760Z,22.24
2017-09-04T12:20:01.923Z,22.21
2017-09-04T12:21:03.811Z,22.15
2017-09-04T12:22:05.700Z,22.17
2017-09-04T12:23:07.590Z,22.14
2017-09-04T12:24:09.411Z,22.06
2017-09-04T12:25:11.253Z,21.96
2017-09-04T12:26:13.139Z,21.79
2017-09-04T12:27:15.029Z,21.46
2017-09-04T12:28:16.916Z,21.16
2017-09-04T12:29:31.079Z,20.77
2017-09-04T12:30:32.968Z,20.59
2017-09-04T12:31:34.861Z,20.58
2017-09-04T12:32:36.746Z,20.51
2017-09-04T12:33:38.572Z,20.35
2017-09-04T12:34:40.402Z,20.21
2017-09-04T12:35:42.313Z,20.13
2017-09-04T12:36:44.209Z,19.99
2017-09-04T12:37:46.107Z,19.91
2017-09-04T12:39:00.268Z,19.83
2017-09-04T12:40:02.155Z,19.87
2017-09-04T12:41:04.044Z,19.86
2017-09-04T12:42:05.928Z,19.98
2017-09-04T12:43:07.753Z,20.05
2017-09-04T12:44:09.584Z,20.06
2017-09-04T12:45:11.469Z,20.13
2017-09-04T12:46:13.389Z,20.21
2017-09-04T12:47:15.279Z,20.11
2017-09-04T12:48:29.452Z,20.23
2017-09-04T12:49:31.347Z,20.06
2017-09-04T12:50:33.239Z,20.21
2017-09-04T12:51:35.150Z,20.11
2017-09-04T12:52:36.976Z,20.05
2017-09-04T12:53:38.804Z,19.98
2017-09-04T12:54:40.692Z,20.08
2017-09-04T12:55:42.580Z,20.08
2017-09-04T12:56:44.470Z,20.20
2017-09-04T12:57:58.639Z,20.18
2017-09-04T12:59:00.570Z,20.20
2017-09-04T13:00:02.426Z,20.24
2017-09-04T13:01:04.317Z,20.35
2017-09-04T13:02:06.488Z,20.41
2017-09-04T13:03:08.592Z,20.52
2017-09-04T13:04:10.446Z,20.58
2017-09-04T13:05:12.332Z,20.55
2017-09-04T13:06:14.221Z,20.55
2017-09-04T13:07:28.387Z,20.52
2017-09-04T13:08:30.274Z,20.39
2017-09-04T13:09:32.174Z,20.28
2017-09-04T13:10:34.070Z,20.20
2017-09-04T13:11:35.899Z,20.21
2017-09-04T13:12:37.753Z,20.23
2017-09-04T13:13:39.612Z,20.21
2017-09-04T13:14:41.511Z,20.28
2017-09-04T13:15:43.398Z,20.33
2017-09-04T13:16:57.563Z,20.39
2017-09-04T13:17:59.452Z,20.43
2017-09-04T13:19:01.343Z,20.55
2017-09-04T13:20:03.243Z,20.55
2017-09-04T13:21:05.076Z,20.43
2017-09-04T13:22:06.905Z,20.39
2017-09-04T13:23:08.793Z,20.33
2017-09-04T13:24:10.679Z,20.51
2017-09-04T13:25:12.576Z,20.50
2017-09-04T13:26:26.744Z,20.59
2017-09-04T13:27:28.672Z,20.67
2017-09-04T13:28:30.562Z,20.76
2017-09-04T13:29:32.449Z,20.85
2017-09-04T13:30:34.676Z,21.12
2017-09-04T13:31:36.548Z,21.13
2017-09-04T13:32:38.435Z,21.13
2017-09-04T13:33:40.349Z,21.13